sensor_id;sensor_type;location;lat;lon;timestamp;pressure;altitude;pressure_sealevel;temperature;humidity
9249;BME280;4660;41.768;26.198;2022-07-06T00:00:31;100672.00;;;21.05;100.00
9249;BME280;4660;41.768;26.198;2022-07-06T00:02:57;100661.88;;;20.93;100.00
9249;BME280;4660;41.768;26.198;2022-07-06T00:05:22;100666.94;;;20.69;100.00
9249;BME280;4660;41.768;26.198;2022-07-06T00:07:48;100668.53;;;20.37;100.00
9249;BME280;4660;41.768;26.198;2022-07-06T00:10:13;100680.72;;;20.34;100.00
9249;BME280;4660;41.768;26.198;2022-07-06T00:12:39;100656.94;;;20.22;100.00
9249;BME280;4660;41.768;26.198;2022-07-06T00:15:05;100668.34;;;20.39;100.00
9249;BME280;4660;41.768;26.198;2022-07-06T00:17:31;100668.38;;;20.45;100.00
9249;BME280;4660;41.768;26.198;2022-07-06T00:19:56;100659.78;;;20.55;100.00
9249;BME280;4660;41.768;26.198;2022-07-06T00:22:22;100661.25;;;20.57;100.00
9249;BME280;4660;41.768;26.198;2022-07-06T00:24:47;100674.19;;;20.22;100.00
9249;BME280;4660;41.768;26.198;2022-07-06T00:27:13;100652.97;;;20.31;100.00
9249;BME280;4660;41.768;26.198;2022-07-06T00:29:38;100650.94;;;20.59;100.00
9249;BME280;4660;41.768;26.198;2022-07-06T00:32:10;100657.50;;;20.65;100.00
9249;BME280;4660;41.768;26.198;2022-07-06T00:34:35;100656.81;;;20.56;100.00
9249;BME280;4660;41.768;26.198;2022-07-06T00:37:01;100652.84;;;20.52;100.00
9249;BME280;4660;41.768;26.198;2022-07-06T00:39:26;100654.75;;;20.72;100.00
9249;BME280;4660;41.768;26.198;2022-07-06T00:41:55;100649.91;;;20.67;100.00
9249;BME280;4660;41.768;26.198;2022-07-06T00:44:21;100657.25;;;20.53;100.00
9249;BME280;4660;41.768;26.198;2022-07-06T00:46:47;100646.53;;;20.45;100.00
9249;BME280;4660;41.768;26.198;2022-07-06T00:49:12;100655.28;;;20.34;100.00
9249;BME280;4660;41.768;26.198;2022-07-06T00:51:58;100648.75;;;20.28;100.00
9249;BME280;4660;41.768;26.198;2022-07-06T00:54:26;100649.81;;;20.34;100.00
9249;BME280;4660;41.768;26.198;2022-07-06T00:56:52;100656.91;;;20.09;100.00
9249;BME280;4660;41.768;26.198;2022-07-06T00:59:18;100654.13;;;19.95;100.00
9249;BME280;4660;41.768;26.198;2022-07-06T01:01:43;100654.38;;;20.14;100.00
9249;BME280;4660;41.768;26.198;2022-07-06T01:04:10;100649.28;;;19.97;100.00
9249;BME280;4660;41.768;26.198;2022-07-06T01:06:36;100653.03;;;19.90;100.00
9249;BME280;4660;41.768;26.198;2022-07-06T01:09:01;100657.22;;;19.79;100.00
9249;BME280;4660;41.768;26.198;2022-07-06T01:11:28;100648.41;;;19.84;100.00
9249;BME280;4660;41.768;26.198;2022-07-06T01:13:54;100645.28;;;19.87;100.00
9249;BME280;4660;41.768;26.198;2022-07-06T01:16:20;100647.59;;;19.55;100.00
9249;BME280;4660;41.768;26.198;2022-07-06T01:18:46;100650.41;;;19.34;100.00
9249;BME280;4660;41.768;26.198;2022-07-06T01:21:13;100645.94;;;19.26;100.00
9249;BME280;4660;41.768;26.198;2022-07-06T01:23:43;100638.00;;;19.59;100.00
9249;BME280;4660;41.768;26.198;2022-07-06T01:26:12;100645.88;;;19.47;100.00
9249;BME280;4660;41.768;26.198;2022-07-06T01:28:38;100643.56;;;19.44;100.00
9249;BME280;4660;41.768;26.198;2022-07-06T01:31:04;100652.28;;;19.33;100.00
9249;BME280;4660;41.768;26.198;2022-07-06T01:33:31;100643.44;;;18.96;100.00
9249;BME280;4660;41.768;26.198;2022-07-06T01:35:56;100651.66;;;19.03;100.00
9249;BME280;4660;41.768;26.198;2022-07-06T01:38:22;100646.38;;;19.23;100.00
9249;BME280;4660;41.768;26.198;2022-07-06T01:40:48;100650.94;;;19.16;100.00
9249;BME280;4660;41.768;26.198;2022-07-06T01:43:13;100639.22;;;19.22;100.00
9249;BME280;4660;41.768;26.198;2022-07-06T01:45:39;100638.44;;;19.35;100.00
9249;BME280;4660;41.768;26.198;2022-07-06T01:48:07;100629.19;;;19.29;100.00
9249;BME280;4660;41.768;26.198;2022-07-06T01:50:33;100638.66;;;19.33;100.00
9249;BME280;4660;41.768;26.198;2022-07-06T01:53:00;100628.91;;;19.17;100.00
9249;BME280;4660;41.768;26.198;2022-07-06T01:55:25;100620.53;;;19.19;100.00
9249;BME280;4660;41.768;26.198;2022-07-06T01:57:51;100629.94;;;19.16;100.00
9249;BME280;4660;41.768;26.198;2022-07-06T02:00:16;100618.38;;;19.08;100.00
9249;BME280;4660;41.768;26.198;2022-07-06T02:02:42;100615.53;;;19.22;100.00
9249;BME280;4660;41.768;26.198;2022-07-06T02:05:07;100614.31;;;19.32;100.00
9249;BME280;4660;41.768;26.198;2022-07-06T02:07:33;100601.31;;;19.34;100.00
9249;BME280;4660;41.768;26.198;2022-07-06T02:09:59;100608.25;;;19.36;100.00
9249;BME280;4660;41.768;26.198;2022-07-06T02:12:25;100605.41;;;19.51;100.00
9249;BME280;4660;41.768;26.198;2022-07-06T02:14:50;100612.31;;;19.53;100.00
9249;BME280;4660;41.768;26.198;2022-07-06T02:17:16;100611.44;;;19.46;100.00
9249;BME280;4660;41.768;26.198;2022-07-06T02:19:41;100619.19;;;19.36;100.00
9249;BME280;4660;41.768;26.198;2022-07-06T02:22:07;100618.56;;;19.41;100.00
9249;BME280;4660;41.768;26.198;2022-07-06T02:24:33;100604.94;;;19.47;100.00
9249;BME280;4660;41.768;26.198;2022-07-06T02:26:58;100623.44;;;19.52;100.00
9249;BME280;4660;41.768;26.198;2022-07-06T02:29:24;100635.75;;;19.41;100.00
9249;BME280;4660;41.768;26.198;2022-07-06T02:31:51;100634.66;;;19.36;100.00
9249;BME280;4660;41.768;26.198;2022-07-06T02:34:16;100632.81;;;19.36;100.00
9249;BME280;4660;41.768;26.198;2022-07-06T02:36:42;100615.63;;;18.80;100.00
9249;BME280;4660;41.768;26.198;2022-07-06T02:39:07;100620.19;;;18.51;100.00
9249;BME280;4660;41.768;26.198;2022-07-06T02:41:33;100606.22;;;18.61;100.00
9249;BME280;4660;41.768;26.198;2022-07-06T02:43:59;100611.41;;;18.56;100.00
9249;BME280;4660;41.768;26.198;2022-07-06T02:46:24;100607.91;;;18.62;100.00
9249;BME280;4660;41.768;26.198;2022-07-06T02:48:50;100605.16;;;18.62;100.00
9249;BME280;4660;41.768;26.198;2022-07-06T02:51:15;100605.50;;;18.52;100.00
9249;BME280;4660;41.768;26.198;2022-07-06T02:53:41;100602.72;;;18.46;100.00
9249;BME280;4660;41.768;26.198;2022-07-06T02:56:07;100602.53;;;18.26;100.00
9249;BME280;4660;41.768;26.198;2022-07-06T02:58:32;100595.97;;;18.41;100.00
9249;BME280;4660;41.768;26.198;2022-07-06T03:00:58;100595.47;;;18.53;100.00
9249;BME280;4660;41.768;26.198;2022-07-06T03:03:23;100584.00;;;18.64;100.00
9249;BME280;4660;41.768;26.198;2022-07-06T03:05:49;100578.06;;;18.75;100.00
9249;BME280;4660;41.768;26.198;2022-07-06T03:08:15;100578.91;;;18.76;100.00
9249;BME280;4660;41.768;26.198;2022-07-06T03:10:40;100593.72;;;18.94;100.00
9249;BME280;4660;41.768;26.198;2022-07-06T03:13:07;100599.81;;;18.96;100.00
9249;BME280;4660;41.768;26.198;2022-07-06T03:15:32;100600.22;;;18.93;100.00
9249;BME280;4660;41.768;26.198;2022-07-06T03:17:58;100592.69;;;18.95;100.00
9249;BME280;4660;41.768;26.198;2022-07-06T03:20:24;100596.44;;;18.94;100.00
9249;BME280;4660;41.768;26.198;2022-07-06T03:22:49;100592.53;;;19.04;100.00
9249;BME280;4660;41.768;26.198;2022-07-06T03:25:15;100600.84;;;19.23;100.00
9249;BME280;4660;41.768;26.198;2022-07-06T03:27:40;100602.94;;;19.28;100.00
9249;BME280;4660;41.768;26.198;2022-07-06T03:30:06;100603.31;;;19.18;100.00
9249;BME280;4660;41.768;26.198;2022-07-06T03:32:32;100599.91;;;19.10;100.00
9249;BME280;4660;41.768;26.198;2022-07-06T03:34:58;100595.72;;;19.14;100.00
9249;BME280;4660;41.768;26.198;2022-07-06T03:37:23;100609.53;;;19.06;100.00
9249;BME280;4660;41.768;26.198;2022-07-06T03:39:49;100602.69;;;18.88;100.00
9249;BME280;4660;41.768;26.198;2022-07-06T03:42:14;100602.06;;;18.86;100.00
9249;BME280;4660;41.768;26.198;2022-07-06T03:44:40;100600.22;;;18.93;100.00
9249;BME280;4660;41.768;26.198;2022-07-06T03:47:06;100611.59;;;18.76;100.00
9249;BME280;4660;41.768;26.198;2022-07-06T03:49:31;100607.47;;;18.80;100.00
9249;BME280;4660;41.768;26.198;2022-07-06T03:51:57;100603.75;;;18.87;100.00
9249;BME280;4660;41.768;26.198;2022-07-06T03:54:22;100606.75;;;18.99;100.00
9249;BME280;4660;41.768;26.198;2022-07-06T03:56:48;100596.69;;;19.00;100.00
9249;BME280;4660;41.768;26.198;2022-07-06T03:59:13;100602.13;;;19.34;100.00
9249;BME280;4660;41.768;26.198;2022-07-06T04:01:40;100582.03;;;19.07;100.00
9249;BME280;4660;41.768;26.198;2022-07-06T04:04:05;100579.53;;;19.06;100.00
9249;BME280;4660;41.768;26.198;2022-07-06T04:06:31;100594.72;;;19.15;100.00
9249;BME280;4660;41.768;26.198;2022-07-06T04:08:56;100583.97;;;19.13;100.00
9249;BME280;4660;41.768;26.198;2022-07-06T04:11:22;100590.09;;;19.15;100.00
9249;BME280;4660;41.768;26.198;2022-07-06T04:13:47;100586.63;;;19.35;100.00
9249;BME280;4660;41.768;26.198;2022-07-06T04:16:13;100585.38;;;19.37;100.00
9249;BME280;4660;41.768;26.198;2022-07-06T04:18:38;100598.69;;;19.53;100.00
9249;BME280;4660;41.768;26.198;2022-07-06T04:21:04;100587.34;;;19.57;100.00
9249;BME280;4660;41.768;26.198;2022-07-06T04:23:30;100590.81;;;19.72;100.00
9249;BME280;4660;41.768;26.198;2022-07-06T04:25:56;100599.94;;;19.99;100.00
9249;BME280;4660;41.768;26.198;2022-07-06T04:28:21;100599.28;;;19.90;100.00
9249;BME280;4660;41.768;26.198;2022-07-06T04:30:47;100581.25;;;20.02;100.00
9249;BME280;4660;41.768;26.198;2022-07-06T04:33:12;100586.25;;;19.92;100.00
9249;BME280;4660;41.768;26.198;2022-07-06T04:35:38;100594.44;;;19.92;100.00
9249;BME280;4660;41.768;26.198;2022-07-06T04:38:04;100570.72;;;19.99;100.00
9249;BME280;4660;41.768;26.198;2022-07-06T04:40:30;100583.19;;;20.22;100.00
9249;BME280;4660;41.768;26.198;2022-07-06T04:42:56;100589.06;;;20.25;100.00
9249;BME280;4660;41.768;26.198;2022-07-06T04:45:22;100579.78;;;20.06;100.00
9249;BME280;4660;41.768;26.198;2022-07-06T04:47:47;100594.28;;;20.07;100.00
9249;BME280;4660;41.768;26.198;2022-07-06T04:50:13;100583.34;;;20.14;100.00
9249;BME280;4660;41.768;26.198;2022-07-06T04:52:38;100580.25;;;20.30;100.00
9249;BME280;4660;41.768;26.198;2022-07-06T04:55:04;100592.72;;;20.52;100.00
9249;BME280;4660;41.768;26.198;2022-07-06T04:57:31;100596.50;;;20.65;100.00
9249;BME280;4660;41.768;26.198;2022-07-06T04:59:57;100592.72;;;20.59;100.00
9249;BME280;4660;41.768;26.198;2022-07-06T05:02:22;100590.81;;;20.79;100.00
9249;BME280;4660;41.768;26.198;2022-07-06T05:04:48;100573.13;;;20.95;100.00
9249;BME280;4660;41.768;26.198;2022-07-06T05:07:15;100583.38;;;21.13;100.00
9249;BME280;4660;41.768;26.198;2022-07-06T05:09:42;100595.19;;;21.00;100.00
9249;BME280;4660;41.768;26.198;2022-07-06T05:12:09;100596.91;;;20.95;100.00
9249;BME280;4660;41.768;26.198;2022-07-06T05:14:36;100588.69;;;20.95;100.00
9249;BME280;4660;41.768;26.198;2022-07-06T05:17:03;100590.59;;;20.94;100.00
9249;BME280;4660;41.768;26.198;2022-07-06T05:19:29;100614.16;;;21.02;100.00
9249;BME280;4660;41.768;26.198;2022-07-06T05:21:56;100599.03;;;20.86;100.00
9249;BME280;4660;41.768;26.198;2022-07-06T05:24:23;100604.50;;;20.79;100.00
9249;BME280;4660;41.768;26.198;2022-07-06T05:26:50;100608.66;;;21.08;100.00
9249;BME280;4660;41.768;26.198;2022-07-06T05:29:17;100603.19;;;21.08;100.00
9249;BME280;4660;41.768;26.198;2022-07-06T05:31:44;100610.28;;;21.42;100.00
9249;BME280;4660;41.768;26.198;2022-07-06T05:34:11;100608.50;;;21.75;100.00
9249;BME280;4660;41.768;26.198;2022-07-06T05:36:38;100610.59;;;21.79;100.00
9249;BME280;4660;41.768;26.198;2022-07-06T05:39:05;100610.44;;;22.06;100.00
9249;BME280;4660;41.768;26.198;2022-07-06T05:41:32;100595.72;;;22.00;100.00
9249;BME280;4660;41.768;26.198;2022-07-06T05:43:58;100610.78;;;22.29;100.00
9249;BME280;4660;41.768;26.198;2022-07-06T05:46:26;100619.13;;;22.41;100.00
9249;BME280;4660;41.768;26.198;2022-07-06T05:48:53;100616.38;;;22.41;100.00
9249;BME280;4660;41.768;26.198;2022-07-06T05:51:40;100619.25;;;22.52;100.00
9249;BME280;4660;41.768;26.198;2022-07-06T05:54:07;100629.56;;;22.82;100.00
9249;BME280;4660;41.768;26.198;2022-07-06T05:56:34;100621.19;;;23.02;99.98
9249;BME280;4660;41.768;26.198;2022-07-06T05:59:00;100619.53;;;23.01;98.94
9249;BME280;4660;41.768;26.198;2022-07-06T06:01:27;100625.09;;;23.13;98.89
9249;BME280;4660;41.768;26.198;2022-07-06T06:03:54;100625.56;;;23.28;98.60
9249;BME280;4660;41.768;26.198;2022-07-06T06:06:21;100633.28;;;23.56;96.97
9249;BME280;4660;41.768;26.198;2022-07-06T06:08:48;100616.25;;;23.72;93.30
9249;BME280;4660;41.768;26.198;2022-07-06T06:11:15;100604.31;;;23.78;93.52
9249;BME280;4660;41.768;26.198;2022-07-06T06:13:42;100621.38;;;23.99;90.21
9249;BME280;4660;41.768;26.198;2022-07-06T06:16:09;100631.59;;;24.10;86.77
9249;BME280;4660;41.768;26.198;2022-07-06T06:18:36;100619.69;;;23.98;89.94
9249;BME280;4660;41.768;26.198;2022-07-06T06:21:03;100611.94;;;23.95;90.44
9249;BME280;4660;41.768;26.198;2022-07-06T06:23:30;100620.63;;;24.22;83.79
9249;BME280;4660;41.768;26.198;2022-07-06T06:25:57;100613.34;;;24.57;83.58
9249;BME280;4660;41.768;26.198;2022-07-06T06:28:24;100611.22;;;24.71;79.55
9249;BME280;4660;41.768;26.198;2022-07-06T06:30:51;100615.44;;;24.85;80.91
9249;BME280;4660;41.768;26.198;2022-07-06T06:33:19;100614.13;;;24.99;78.97
9249;BME280;4660;41.768;26.198;2022-07-06T06:35:52;100611.28;;;25.06;74.83
9249;BME280;4660;41.768;26.198;2022-07-06T06:38:21;100618.00;;;25.10;76.21
9249;BME280;4660;41.768;26.198;2022-07-06T06:40:48;100618.09;;;25.27;73.97
9249;BME280;4660;41.768;26.198;2022-07-06T06:43:15;100614.63;;;25.43;72.03
9249;BME280;4660;41.768;26.198;2022-07-06T06:45:41;100619.75;;;25.51;70.39
9249;BME280;4660;41.768;26.198;2022-07-06T06:48:08;100615.03;;;25.64;72.06
9249;BME280;4660;41.768;26.198;2022-07-06T06:50:35;100611.38;;;25.58;74.14
9249;BME280;4660;41.768;26.198;2022-07-06T06:53:02;100612.81;;;25.72;72.58
9249;BME280;4660;41.768;26.198;2022-07-06T06:55:28;100612.34;;;25.92;71.19
9249;BME280;4660;41.768;26.198;2022-07-06T06:57:54;100618.19;;;26.08;67.84
9249;BME280;4660;41.768;26.198;2022-07-06T07:00:22;100618.63;;;26.16;69.66
9249;BME280;4660;41.768;26.198;2022-07-06T07:02:48;100617.66;;;26.22;68.65
9249;BME280;4660;41.768;26.198;2022-07-06T07:05:13;100596.91;;;26.48;68.65
9249;BME280;4660;41.768;26.198;2022-07-06T07:07:39;100609.09;;;26.86;65.48
9249;BME280;4660;41.768;26.198;2022-07-06T07:10:06;100603.09;;;26.89;63.48
9249;BME280;4660;41.768;26.198;2022-07-06T07:12:31;100595.66;;;26.89;63.88
9249;BME280;4660;41.768;26.198;2022-07-06T07:14:58;100605.78;;;27.18;65.38
9249;BME280;4660;41.768;26.198;2022-07-06T07:17:24;100596.56;;;27.12;56.83
9249;BME280;4660;41.768;26.198;2022-07-06T07:19:49;100613.25;;;27.39;56.06
9249;BME280;4660;41.768;26.198;2022-07-06T07:22:15;100603.78;;;27.52;53.88
9249;BME280;4660;41.768;26.198;2022-07-06T07:24:41;100608.44;;;27.68;53.55
9249;BME280;4660;41.768;26.198;2022-07-06T07:27:06;100600.44;;;27.72;52.33
9249;BME280;4660;41.768;26.198;2022-07-06T07:29:32;100612.22;;;27.84;52.15
9249;BME280;4660;41.768;26.198;2022-07-06T07:31:58;100601.41;;;27.82;52.48
9249;BME280;4660;41.768;26.198;2022-07-06T07:34:23;100594.34;;;28.18;52.04
9249;BME280;4660;41.768;26.198;2022-07-06T07:36:50;100596.25;;;28.40;50.85
9249;BME280;4660;41.768;26.198;2022-07-06T07:39:17;100608.56;;;28.54;50.48
9249;BME280;4660;41.768;26.198;2022-07-06T07:41:44;100595.28;;;28.56;50.95
9249;BME280;4660;41.768;26.198;2022-07-06T07:44:11;100598.16;;;28.66;49.98
9249;BME280;4660;41.768;26.198;2022-07-06T07:46:38;100577.19;;;28.75;50.04
9249;BME280;4660;41.768;26.198;2022-07-06T07:49:06;100587.81;;;28.89;51.79
9249;BME280;4660;41.768;26.198;2022-07-06T07:51:33;100589.41;;;28.79;51.33
9249;BME280;4660;41.768;26.198;2022-07-06T07:54:00;100581.75;;;28.92;49.82
9249;BME280;4660;41.768;26.198;2022-07-06T07:56:26;100562.44;;;29.02;49.70
9249;BME280;4660;41.768;26.198;2022-07-06T07:58:52;100575.91;;;29.36;47.46
9249;BME280;4660;41.768;26.198;2022-07-06T08:01:17;100586.03;;;29.52;47.72
9249;BME280;4660;41.768;26.198;2022-07-06T08:03:43;100583.34;;;29.72;47.02
9249;BME280;4660;41.768;26.198;2022-07-06T08:06:09;100575.03;;;29.82;47.34
9249;BME280;4660;41.768;26.198;2022-07-06T08:08:35;100571.19;;;29.88;46.79
9249;BME280;4660;41.768;26.198;2022-07-06T08:11:00;100571.84;;;30.16;46.30
9249;BME280;4660;41.768;26.198;2022-07-06T08:13:26;100561.88;;;30.30;44.77
9249;BME280;4660;41.768;26.198;2022-07-06T08:15:52;100567.97;;;30.42;44.92
9249;BME280;4660;41.768;26.198;2022-07-06T08:18:17;100568.81;;;30.23;44.64
9249;BME280;4660;41.768;26.198;2022-07-06T08:20:43;100561.28;;;30.28;43.39
9249;BME280;4660;41.768;26.198;2022-07-06T08:23:08;100561.00;;;30.20;43.57
9249;BME280;4660;41.768;26.198;2022-07-06T08:25:34;100553.50;;;30.10;44.34
9249;BME280;4660;41.768;26.198;2022-07-06T08:28:00;100550.19;;;30.28;43.45
9249;BME280;4660;41.768;26.198;2022-07-06T08:30:26;100540.47;;;30.26;42.02
9249;BME280;4660;41.768;26.198;2022-07-06T08:32:52;100554.63;;;30.34;42.11
9249;BME280;4660;41.768;26.198;2022-07-06T08:35:18;100558.81;;;30.37;41.93
9249;BME280;4660;41.768;26.198;2022-07-06T08:37:43;100555.19;;;30.47;41.26
9249;BME280;4660;41.768;26.198;2022-07-06T08:40:09;100558.84;;;30.73;41.49
9249;BME280;4660;41.768;26.198;2022-07-06T08:42:35;100556.59;;;30.90;40.96
9249;BME280;4660;41.768;26.198;2022-07-06T08:45:04;100558.00;;;30.82;40.46
9249;BME280;4660;41.768;26.198;2022-07-06T08:47:30;100552.69;;;30.86;39.62
9249;BME280;4660;41.768;26.198;2022-07-06T08:49:56;100558.25;;;30.91;39.95
9249;BME280;4660;41.768;26.198;2022-07-06T08:52:23;100556.56;;;31.05;38.72
9249;BME280;4660;41.768;26.198;2022-07-06T08:54:49;100546.25;;;31.16;36.14
9249;BME280;4660;41.768;26.198;2022-07-06T08:57:17;100554.59;;;31.26;34.95
9249;BME280;4660;41.768;26.198;2022-07-06T08:59:43;100540.69;;;31.31;31.46
9249;BME280;4660;41.768;26.198;2022-07-06T09:02:10;100551.66;;;31.62;29.91
9249;BME280;4660;41.768;26.198;2022-07-06T09:04:36;100545.84;;;31.58;28.72
9249;BME280;4660;41.768;26.198;2022-07-06T09:07:03;100546.16;;;31.46;26.74
9249;BME280;4660;41.768;26.198;2022-07-06T09:09:29;100547.38;;;31.25;26.37
9249;BME280;4660;41.768;26.198;2022-07-06T09:11:58;100531.78;;;31.19;25.95
9249;BME280;4660;41.768;26.198;2022-07-06T09:14:23;100561.16;;;31.50;25.29
9249;BME280;4660;41.768;26.198;2022-07-06T09:17:01;100557.72;;;31.79;25.29
9249;BME280;4660;41.768;26.198;2022-07-06T09:19:31;100556.03;;;31.88;24.97
9249;BME280;4660;41.768;26.198;2022-07-06T09:21:58;100540.25;;;32.13;24.06
9249;BME280;4660;41.768;26.198;2022-07-06T09:24:24;100553.47;;;32.36;24.45
9249;BME280;4660;41.768;26.198;2022-07-06T09:26:54;100553.44;;;32.41;23.62
9249;BME280;4660;41.768;26.198;2022-07-06T09:29:32;100548.41;;;32.43;23.73
9249;BME280;4660;41.768;26.198;2022-07-06T09:32:02;100549.75;;;32.51;23.98
9249;BME280;4660;41.768;26.198;2022-07-06T09:34:44;100540.63;;;32.40;23.80
9249;BME280;4660;41.768;26.198;2022-07-06T09:37:12;100550.13;;;32.39;23.41
9249;BME280;4660;41.768;26.198;2022-07-06T09:39:38;100549.16;;;32.54;23.21
9249;BME280;4660;41.768;26.198;2022-07-06T09:42:05;100550.19;;;32.63;23.47
9249;BME280;4660;41.768;26.198;2022-07-06T09:44:36;100535.69;;;32.32;23.14
9249;BME280;4660;41.768;26.198;2022-07-06T09:47:08;100543.59;;;32.54;23.44
9249;BME280;4660;41.768;26.198;2022-07-06T09:49:35;100545.06;;;32.46;23.37
9249;BME280;4660;41.768;26.198;2022-07-06T09:52:06;100539.22;;;32.43;23.58
9249;BME280;4660;41.768;26.198;2022-07-06T09:54:33;100525.78;;;32.79;23.43
9249;BME280;4660;41.768;26.198;2022-07-06T09:57:00;100528.47;;;33.18;24.32
9249;BME280;4660;41.768;26.198;2022-07-06T09:59:30;100523.00;;;33.32;23.79
9249;BME280;4660;41.768;26.198;2022-07-06T10:01:58;100527.88;;;33.21;23.39
9249;BME280;4660;41.768;26.198;2022-07-06T10:04:25;100531.22;;;33.47;23.37
9249;BME280;4660;41.768;26.198;2022-07-06T10:06:51;100522.72;;;33.33;23.41
9249;BME280;4660;41.768;26.198;2022-07-06T10:09:19;100529.16;;;33.29;23.92
9249;BME280;4660;41.768;26.198;2022-07-06T10:14:24;100520.81;;;32.76;24.06
9249;BME280;4660;41.768;26.198;2022-07-06T10:16:51;100519.91;;;32.85;24.34
9249;BME280;4660;41.768;26.198;2022-07-06T10:19:20;100514.53;;;32.94;23.79
9249;BME280;4660;41.768;26.198;2022-07-06T10:21:48;100506.59;;;32.77;23.73
9249;BME280;4660;41.768;26.198;2022-07-06T10:24:17;100500.66;;;32.84;24.08
9249;BME280;4660;41.768;26.198;2022-07-06T10:26:45;100492.53;;;33.17;22.95
9249;BME280;4660;41.768;26.198;2022-07-06T10:29:13;100502.84;;;33.40;21.90
9249;BME280;4660;41.768;26.198;2022-07-06T10:31:47;100505.56;;;33.21;22.86
9249;BME280;4660;41.768;26.198;2022-07-06T10:34:39;100496.50;;;32.87;22.67
9249;BME280;4660;41.768;26.198;2022-07-06T10:37:28;100502.59;;;32.89;22.33
9249;BME280;4660;41.768;26.198;2022-07-06T10:40:07;100483.09;;;32.89;22.53
9249;BME280;4660;41.768;26.198;2022-07-06T10:43:01;100479.50;;;32.83;22.05
9249;BME280;4660;41.768;26.198;2022-07-06T10:50:54;100491.03;;;33.86;20.95
9249;BME280;4660;41.768;26.198;2022-07-06T10:53:31;100493.91;;;33.62;21.22
9249;BME280;4660;41.768;26.198;2022-07-06T10:55:58;100490.97;;;33.29;21.65
9249;BME280;4660;41.768;26.198;2022-07-06T10:58:47;100478.81;;;33.44;21.31
9249;BME280;4660;41.768;26.198;2022-07-06T11:01:15;100480.09;;;33.71;20.70
9249;BME280;4660;41.768;26.198;2022-07-06T11:06:26;100463.38;;;34.08;21.04
9249;BME280;4660;41.768;26.198;2022-07-06T11:09:06;100478.38;;;33.93;20.83
9249;BME280;4660;41.768;26.198;2022-07-06T11:11:40;100467.59;;;33.87;21.24
9249;BME280;4660;41.768;26.198;2022-07-06T11:14:17;100466.38;;;34.12;21.01
9249;BME280;4660;41.768;26.198;2022-07-06T11:19:23;100455.97;;;34.78;20.13
9249;BME280;4660;41.768;26.198;2022-07-06T11:22:18;100464.81;;;34.38;19.14
9249;BME280;4660;41.768;26.198;2022-07-06T11:24:44;100447.22;;;34.38;19.13
9249;BME280;4660;41.768;26.198;2022-07-06T11:27:11;100437.78;;;34.34;19.55
9249;BME280;4660;41.768;26.198;2022-07-06T11:29:39;100450.28;;;34.36;20.40
9249;BME280;4660;41.768;26.198;2022-07-06T11:32:30;100446.44;;;34.18;21.14
9249;BME280;4660;41.768;26.198;2022-07-06T11:34:57;100427.50;;;34.15;21.10
9249;BME280;4660;41.768;26.198;2022-07-06T11:37:24;100418.28;;;34.15;20.73
9249;BME280;4660;41.768;26.198;2022-07-06T11:39:52;100422.97;;;34.19;20.71
9249;BME280;4660;41.768;26.198;2022-07-06T11:42:18;100405.69;;;34.17;20.12
9249;BME280;4660;41.768;26.198;2022-07-06T11:44:48;100425.63;;;34.57;19.30
9249;BME280;4660;41.768;26.198;2022-07-06T11:47:18;100406.78;;;34.49;19.99
9249;BME280;4660;41.768;26.198;2022-07-06T11:49:58;100425.84;;;34.47;20.80
9249;BME280;4660;41.768;26.198;2022-07-06T11:52:30;100429.16;;;34.49;20.53
9249;BME280;4660;41.768;26.198;2022-07-06T11:55:00;100436.81;;;34.71;19.92
9249;BME280;4660;41.768;26.198;2022-07-06T11:57:26;100436.84;;;34.85;19.27
9249;BME280;4660;41.768;26.198;2022-07-06T11:59:56;100426.47;;;34.85;19.57
9249;BME280;4660;41.768;26.198;2022-07-06T12:02:22;100423.69;;;34.44;19.66
9249;BME280;4660;41.768;26.198;2022-07-06T12:04:49;100398.59;;;34.39;20.25
9249;BME280;4660;41.768;26.198;2022-07-06T12:07:17;100402.63;;;34.00;19.94
9249;BME280;4660;41.768;26.198;2022-07-06T12:09:45;100410.06;;;34.24;19.83
9249;BME280;4660;41.768;26.198;2022-07-06T12:12:13;100403.59;;;34.42;19.39
9249;BME280;4660;41.768;26.198;2022-07-06T12:14:42;100398.63;;;34.53;20.19
9249;BME280;4660;41.768;26.198;2022-07-06T12:17:15;100399.78;;;34.65;20.16
9249;BME280;4660;41.768;26.198;2022-07-06T12:19:43;100389.16;;;34.35;20.30
9249;BME280;4660;41.768;26.198;2022-07-06T12:22:36;100400.25;;;34.40;20.68
9249;BME280;4660;41.768;26.198;2022-07-06T12:25:04;100407.75;;;34.58;20.31
9249;BME280;4660;41.768;26.198;2022-07-06T12:27:33;100392.34;;;34.74;19.92
9249;BME280;4660;41.768;26.198;2022-07-06T12:30:10;100389.84;;;34.87;19.77
9249;BME280;4660;41.768;26.198;2022-07-06T12:32:37;100401.47;;;34.94;20.39
9249;BME280;4660;41.768;26.198;2022-07-06T12:35:06;100401.81;;;35.28;20.88
9249;BME280;4660;41.768;26.198;2022-07-06T12:37:32;100392.81;;;35.45;20.61
9249;BME280;4660;41.768;26.198;2022-07-06T12:39:57;100393.91;;;35.58;21.08
9249;BME280;4660;41.768;26.198;2022-07-06T12:42:23;100378.78;;;34.68;21.97
9249;BME280;4660;41.768;26.198;2022-07-06T12:44:50;100389.34;;;34.98;21.82
9249;BME280;4660;41.768;26.198;2022-07-06T12:47:21;100376.72;;;35.37;21.20
9249;BME280;4660;41.768;26.198;2022-07-06T12:49:49;100372.41;;;35.67;20.99
9249;BME280;4660;41.768;26.198;2022-07-06T12:52:28;100354.44;;;35.68;21.34
9249;BME280;4660;41.768;26.198;2022-07-06T12:54:54;100369.66;;;35.40;22.09
9249;BME280;4660;41.768;26.198;2022-07-06T12:57:24;100375.34;;;34.85;22.50
9249;BME280;4660;41.768;26.198;2022-07-06T13:07:34;100364.53;;;35.19;22.47
9249;BME280;4660;41.768;26.198;2022-07-06T13:10:07;100358.59;;;35.35;21.58
9249;BME280;4660;41.768;26.198;2022-07-06T13:12:33;100355.66;;;35.76;21.23
9249;BME280;4660;41.768;26.198;2022-07-06T13:14:59;100356.91;;;36.15;20.47
9249;BME280;4660;41.768;26.198;2022-07-06T13:17:25;100320.88;;;35.68;20.08